Time;durP1;ratioP1;P1;durP2;ratioP2;P2;SDS_P1;SDS_P2;PMS_P1;PMS_P2;Temp;Humidity;BMP_temperature;BMP_pressure;BME280_temperature;BME280_humidity;BME280_pressure;Samples;Min_cycle;Max_cycle;Signal;HPM_P1;HPM_P2
2022/01/31 00:02:10;;;;;;;;;;;;;;;2.40;73.70;100542.16;6251492;22;1159;-89
2022/01/31 00:04:35;;;;;;;;;;;;;;;2.43;73.62;100545.25;6278299;22;1294;-89
2022/01/31 00:07:01;;;;;;;;;;;;;;;2.48;74.13;100531.88;6278505;22;849;-89
2022/01/31 00:09:27;;;;;;;;;;;;;;;2.47;73.35;100526.69;6250056;22;1329;-89
2022/01/31 00:11:57;;;;;;;;;;;;;;;2.52;72.45;100518.75;6277837;22;1912;-89
2022/01/31 00:14:42;;;;;;;;;;;;;;;2.55;72.97;100505.59;6251077;22;1367;-88
2022/01/31 00:17:07;;;;;;;;;;;;;;;2.53;73.21;100494.22;6251339;22;1378;-89
2022/01/31 00:19:34;;;;;;;;;;;;;;;2.51;73.19;100472.00;6278427;22;1022;-89
2022/01/31 00:21:59;;;;;;;;;;;;;;;2.51;73.34;100463.06;6278095;22;778;-89
2022/01/31 00:24:24;;;;;;;;;;;;;;;2.54;73.55;100444.53;6250853;22;1252;-89
2022/01/31 00:26:50;;;;;;;;;;;;;;;2.49;73.93;100443.56;6251006;22;1277;-89
2022/01/31 00:29:15;;;;;;;;;;;;;;;2.41;73.63;100438.47;6278152;22;1039;-89
2022/01/31 00:31:40;;;;;;;;;;;;;;;2.42;73.88;100437.44;6250737;22;1880;-89
2022/01/31 00:34:05;;;;;;;;;;;;;;;2.52;74.42;100451.22;6277915;22;1199;-89
2022/01/31 00:36:31;;;;;;;;;;;;;;;2.54;74.44;100435.59;6250976;22;1286;-89
2022/01/31 00:38:56;;;;;;;;;;;;;;;2.52;74.02;100430.44;6250758;22;1060;-89
2022/01/31 00:41:21;;;;;;;;;;;;;;;2.55;74.66;100410.25;6277447;22;1045;-89
2022/01/31 00:43:57;;;;;;;;;;;;;;;2.52;74.21;100398.00;6250864;22;1208;-88
2022/01/31 00:46:28;;;;;;;;;;;;;;;2.53;74.00;100398.84;6278120;22;872;-89
2022/01/31 00:48:53;;;;;;;;;;;;;;;2.50;75.11;100388.47;6251092;22;1474;-89
2022/01/31 00:51:18;;;;;;;;;;;;;;;2.51;74.32;100374.75;6277459;22;1896;-89
2022/01/31 00:53:44;;;;;;;;;;;;;;;2.47;74.55;100360.03;6277832;22;1281;-89
2022/01/31 00:56:09;;;;;;;;;;;;;;;2.45;74.44;100340.56;6278012;22;805;-89
2022/01/31 00:58:35;;;;;;;;;;;;;;;2.45;74.29;100332.44;6250670;22;1306;-90
2022/01/31 01:01:00;;;;;;;;;;;;;;;2.41;74.38;100322.31;6277897;22;829;-89
2022/01/31 01:03:26;;;;;;;;;;;;;;;2.42;74.81;100311.28;6277566;22;1292;-89
2022/01/31 01:05:51;;;;;;;;;;;;;;;2.42;75.03;100294.25;6250606;22;1188;-89
2022/01/31 01:08:16;;;;;;;;;;;;;;;2.41;74.73;100273.72;6250641;22;1182;-89
2022/01/31 01:10:41;;;;;;;;;;;;;;;2.39;74.71;100243.41;6250273;22;1295;-89
2022/01/31 01:13:06;;;;;;;;;;;;;;;2.38;75.30;100229.09;6277121;22;1884;-89
2022/01/31 01:15:32;;;;;;;;;;;;;;;2.41;74.18;100242.13;6277664;22;1000;-89
2022/01/31 01:17:58;;;;;;;;;;;;;;;2.38;74.59;100242.59;6250466;22;853;-89
2022/01/31 01:20:24;;;;;;;;;;;;;;;2.36;74.60;100247.41;6250449;22;1309;-89
2022/01/31 01:22:49;;;;;;;;;;;;;;;2.32;74.12;100251.63;6250307;22;1219;-88
2022/01/31 01:25:14;;;;;;;;;;;;;;;2.39;74.83;100238.00;6277498;22;1440;-89
2022/01/31 01:27:42;;;;;;;;;;;;;;;2.41;74.47;100217.81;6250425;22;1215;-89
2022/01/31 01:30:09;;;;;;;;;;;;;;;2.34;73.98;100216.28;6250390;22;1389;-89
2022/01/31 01:32:45;;;;;;;;;;;;;;;2.35;74.57;100194.44;6249916;22;1926;-89
2022/01/31 01:35:10;;;;;;;;;;;;;;;2.39;73.88;100192.09;6250339;22;1365;-89
2022/01/31 01:37:35;;;;;;;;;;;;;;;2.37;73.92;100195.03;6277463;22;999;-90
2022/01/31 01:40:00;;;;;;;;;;;;;;;2.40;73.48;100183.75;6250465;22;773;-89
2022/01/31 01:42:26;;;;;;;;;;;;;;;2.41;73.66;100165.66;6249793;22;1198;-90
2022/01/31 01:44:51;;;;;;;;;;;;;;;2.39;73.44;100156.97;6250287;22;1185;-89
2022/01/31 01:47:17;;;;;;;;;;;;;;;2.38;73.51;100156.19;6250295;22;1378;-89
2022/01/31 01:49:42;;;;;;;;;;;;;;;2.41;73.76;100144.88;6250232;22;1199;-89
2022/01/31 01:52:08;;;;;;;;;;;;;;;2.46;74.09;100136.09;6276905;22;1892;-89
2022/01/31 01:54:33;;;;;;;;;;;;;;;2.44;73.67;100128.22;6277401;22;1243;-89
2022/01/31 01:56:59;;;;;;;;;;;;;;;2.42;74.04;100111.41;6277223;22;893;-89
2022/01/31 01:59:24;;;;;;;;;;;;;;;2.42;74.37;100100.63;6250244;22;1261;-89
2022/01/31 02:01:49;;;;;;;;;;;;;;;2.45;74.21;100097.44;6249714;22;1317;-89
2022/01/31 02:04:14;;;;;;;;;;;;;;;2.44;73.97;100086.88;6277058;22;1276;-89
2022/01/31 02:06:40;;;;;;;;;;;;;;;2.41;74.55;100079.22;6250128;22;868;-88
2022/01/31 02:09:05;;;;;;;;;;;;;;;2.42;74.80;100070.06;6277184;22;781;-88
2022/01/31 02:11:30;;;;;;;;;;;;;;;2.32;75.04;100054.47;6249524;22;1916;-88
2022/01/31 02:13:57;;;;;;;;;;;;;;;2.32;75.07;100043.66;6249833;22;1252;-88
2022/01/31 02:16:22;;;;;;;;;;;;;;;2.34;75.58;100027.25;6249900;22;1387;-88
2022/01/31 02:18:50;;;;;;;;;;;;;;;2.25;74.99;100015.97;6250214;22;1252;-88
2022/01/31 02:21:16;;;;;;;;;;;;;;;2.27;75.36;99998.50;6249378;22;1473;-88
2022/01/31 02:23:41;;;;;;;;;;;;;;;2.26;75.83;100006.81;6249834;22;1301;-88
2022/01/31 02:26:06;;;;;;;;;;;;;;;2.28;75.51;99986.63;6250002;22;1207;-89
2022/01/31 02:28:33;;;;;;;;;;;;;;;2.31;75.80;99985.31;6249845;22;1190;-89
2022/01/31 02:30:59;;;;;;;;;;;;;;;2.30;75.42;99975.56;6249832;22;1171;-89
2022/01/31 02:33:24;;;;;;;;;;;;;;;2.28;75.67;99972.31;6249786;22;1884;-89
2022/01/31 02:35:52;;;;;;;;;;;;;;;2.29;76.02;99952.34;6249598;22;1365;-90
2022/01/31 02:38:17;;;;;;;;;;;;;;;2.35;76.34;99937.88;6276771;22;1031;-90
2022/01/31 02:40:43;;;;;;;;;;;;;;;2.39;75.86;99924.69;6249670;22;1286;-90
2022/01/31 02:43:08;;;;;;;;;;;;;;;2.36;76.44;99915.22;6249239;22;1219;-90
2022/01/31 02:45:33;;;;;;;;;;;;;;;2.37;76.36;99900.66;6276868;22;920;-89
2022/01/31 02:48:00;;;;;;;;;;;;;;;2.36;76.74;99882.00;6276801;22;767;-90
2022/01/31 02:50:26;;;;;;;;;;;;;;;2.37;76.67;99872.84;6276574;22;834;-89
2022/01/31 02:53:00;;;;;;;;;;;;;;;2.34;76.88;99878.72;6249676;22;1901;-89
2022/01/31 02:55:25;;;;;;;;;;;;;;;2.35;77.03;99862.28;6249700;22;1395;-89
2022/01/31 02:57:50;;;;;;;;;;;;;;;2.32;77.14;99848.41;6276584;22;1012;-90
2022/01/31 03:00:16;;;;;;;;;;;;;;;2.30;77.17;99840.56;6249585;22;1190;-89
2022/01/31 03:02:41;;;;;;;;;;;;;;;2.31;77.05;99823.28;6276325;22;1301;-89
2022/01/31 03:05:06;;;;;;;;;;;;;;;2.33;77.06;99818.47;6275182;22;1071;-90
2022/01/31 03:07:33;;;;;;;;;;;;;;;2.33;77.56;99806.84;6249373;22;1348;-89
2022/01/31 03:09:58;;;;;;;;;;;;;;;2.36;77.56;99806.38;6249373;22;1189;-90
2022/01/31 03:12:23;;;;;;;;;;;;;;;2.36;77.31;99795.56;6249015;22;1919;-90
2022/01/31 03:14:49;;;;;;;;;;;;;;;2.37;77.14;99775.63;6249542;22;1355;-89
2022/01/31 03:17:14;;;;;;;;;;;;;;;2.37;77.41;99776.44;6249393;22;1199;-89
2022/01/31 03:19:42;;;;;;;;;;;;;;;2.35;77.76;99769.63;6276955;22;844;-89
2022/01/31 03:22:07;;;;;;;;;;;;;;;2.36;77.29;99765.88;6249225;22;1422;-90
2022/01/31 03:24:33;;;;;;;;;;;;;;;2.34;76.98;99771.50;6276506;22;1194;-89
2022/01/31 03:26:58;;;;;;;;;;;;;;;2.37;77.36;99754.81;6249358;22;1234;-89
2022/01/31 03:29:23;;;;;;;;;;;;;;;2.42;77.35;99751.38;6249385;22;1321;-89
2022/01/31 03:31:48;;;;;;;;;;;;;;;2.40;77.10;99738.13;6249005;22;1919;-89
2022/01/31 03:34:14;;;;;;;;;;;;;;;2.40;76.96;99713.81;6277527;22;1187;-89
2022/01/31 03:36:39;;;;;;;;;;;;;;;2.41;76.36;99703.81;6278737;22;1036;-89
2022/01/31 03:39:05;;;;;;;;;;;;;;;2.42;76.69;99697.38;6226103;22;1310;-89
2022/01/31 03:41:30;;;;;;;;;;;;;;;2.40;75.71;99676.00;6250976;22;1171;-90
2022/01/31 03:43:55;;;;;;;;;;;;;;;2.41;76.05;99663.31;6251345;22;1277;-89
2022/01/31 03:46:20;;;;;;;;;;;;;;;2.42;76.59;99660.38;6251411;22;1438;-89
2022/01/31 03:48:46;;;;;;;;;;;;;;;2.43;77.00;99656.63;6251343;22;1310;-90
2022/01/31 03:51:11;;;;;;;;;;;;;;;2.41;76.57;99653.34;6278240;22;1933;-90
2022/01/31 03:53:36;;;;;;;;;;;;;;;2.43;77.03;99631.50;6251012;22;1355;-89
2022/01/31 03:56:01;;;;;;;;;;;;;;;2.40;76.67;99624.69;6278467;22;1019;-89
2022/01/31 03:58:27;;;;;;;;;;;;;;;2.41;77.00;99626.31;6251244;22;1161;-89
2022/01/31 04:00:52;;;;;;;;;;;;;;;2.42;77.72;99619.03;6251358;22;1199;-89
2022/01/31 04:03:17;;;;;;;;;;;;;;;2.32;78.53;99594.59;6277950;22;1211;-90
2022/01/31 04:05:44;;;;;;;;;;;;;;;2.32;78.65;99592.72;6278360;22;866;-89
2022/01/31 04:08:12;;;;;;;;;;;;;;;2.29;79.01;99579.72;6251222;22;1204;-89
2022/01/31 04:10:37;;;;;;;;;;;;;;;2.24;79.94;99576.94;6251136;22;1294;-88
2022/01/31 04:13:03;;;;;;;;;;;;;;;2.23;80.30;99570.72;6250628;22;1876;-89
2022/01/31 04:15:28;;;;;;;;;;;;;;;2.09;81.56;99564.03;6278148;22;1380;-89
2022/01/31 04:17:53;;;;;;;;;;;;;;;2.01;82.95;99550.97;6278223;22;1027;-89
2022/01/31 04:20:19;;;;;;;;;;;;;;;1.85;83.66;99551.81;6251117;22;1227;-89
2022/01/31 04:22:56;;;;;;;;;;;;;;;1.79;84.95;99540.09;6250841;22;1370;-89
2022/01/31 04:26:02;;;;;;;;;;;;;;;1.69;85.71;99536.47;6251150;22;1207;-88
2022/01/31 04:30:46;;;;;;;;;;;;;;;1.57;86.54;99520.34;6342112;22;618;-91
2022/01/31 04:33:11;;;;;;;;;;;;;;;1.43;86.97;99508.28;6314310;22;1900;-90
2022/01/31 04:35:36;;;;;;;;;;;;;;;1.48;87.49;99487.59;6313828;22;1148;-89
2022/01/31 04:38:01;;;;;;;;;;;;;;;1.58;87.00;99486.94;6314010;22;1179;-90
2022/01/31 04:40:26;;;;;;;;;;;;;;;1.55;87.26;99481.19;6313586;22;1320;-90
2022/01/31 04:42:51;;;;;;;;;;;;;;;1.59;87.14;99471.56;6313401;22;1190;-90
2022/01/31 04:45:17;;;;;;;;;;;;;;;1.54;87.12;99472.28;6313620;22;1011;-91
2022/01/31 04:47:42;;;;;;;;;;;;;;;1.51;87.33;99456.63;6313692;22;1576;-90
2022/01/31 04:50:07;;;;;;;;;;;;;;;1.45;87.38;99457.59;6313692;22;1011;-90
2022/01/31 04:52:32;;;;;;;;;;;;;;;1.50;87.11;99441.50;6313091;22;1935;-90
2022/01/31 04:54:58;;;;;;;;;;;;;;;1.53;87.40;99428.31;6313819;22;1167;-90
2022/01/31 04:57:23;;;;;;;;;;;;;;;1.51;87.51;99427.78;6313492;22;1499;-90
2022/01/31 04:59:49;;;;;;;;;;;;;;;1.51;87.69;99422.38;6314067;22;833;-90
2022/01/31 05:02:14;;;;;;;;;;;;;;;1.46;87.24;99416.91;6313404;22;1229;-90
2022/01/31 05:04:39;;;;;;;;;;;;;;;1.46;87.75;99408.81;6313765;22;1360;-91
2022/01/31 05:07:04;;;;;;;;;;;;;;;1.52;87.39;99398.94;6313668;22;1269;-90
2022/01/31 05:09:30;;;;;;;;;;;;;;;1.49;87.63;99394.03;6314124;22;1264;-91
2022/01/31 05:11:55;;;;;;;;;;;;;;;1.38;88.28;99393.06;6316105;22;1888;-92
2022/01/31 05:14:20;;;;;;;;;;;;;;;1.50;87.71;99374.91;6313909;22;1024;-91
2022/01/31 05:16:45;;;;;;;;;;;;;;;1.47;87.75;99374.56;6313371;22;1191;-90
2022/01/31 05:19:10;;;;;;;;;;;;;;;1.36;87.73;99365.53;6313634;22;1196;-92
2022/01/31 05:21:36;;;;;;;;;;;;;;;1.49;87.90;99364.38;6313686;22;1159;-92
2022/01/31 05:24:02;;;;;;;;;;;;;;;1.51;87.56;99354.97;6313583;22;1400;-91
2022/01/31 05:26:27;;;;;;;;;;;;;;;1.47;87.20;99358.41;6341433;22;1014;-92
2022/01/31 05:28:52;;;;;;;;;;;;;;;1.43;88.12;99359.97;6306320;22;1341;-92
2022/01/31 05:31:17;;;;;;;;;;;;;;;1.48;87.66;99346.56;6285357;22;1935;-90
2022/01/31 05:33:43;;;;;;;;;;;;;;;1.34;87.92;99339.91;6284385;22;975;-92
2022/01/31 05:36:08;;;;;;;;;;;;;;;1.33;88.41;99332.88;6282675;22;837;-90
2022/01/31 05:38:36;;;;;;;;;;;;;;;1.30;88.15;99333.34;6282161;22;1263;-91
2022/01/31 05:41:06;;;;;;;;;;;;;;;1.22;88.41;99326.53;6282249;22;1214;-92
2022/01/31 05:43:31;;;;;;;;;;;;;;;1.23;88.91;99319.25;6281853;22;1317;-90
2022/01/31 05:45:56;;;;;;;;;;;;;;;1.26;88.92;99318.75;6281968;22;1286;-91
2022/01/31 05:48:21;;;;;;;;;;;;;;;1.37;88.82;99309.72;6282083;22;1176;-90
2022/01/31 05:50:47;;;;;;;;;;;;;;;1.37;88.33;99296.25;6282122;22;1286;-90
2022/01/31 05:53:12;;;;;;;;;;;;;;;1.28;88.73;99295.03;6281885;22;1892;-91
2022/01/31 05:55:47;;;;;;;;;;;;;;;1.28;88.69;99290.47;6281894;22;1337;-91
2022/01/31 05:58:13;;;;;;;;;;;;;;;1.33;88.72;99285.16;6282580;22;1183;-91
2022/01/31 06:00:38;;;;;;;;;;;;;;;1.31;89.18;99286.47;6281995;22;1194;-91
2022/01/31 06:03:03;;;;;;;;;;;;;;;1.31;88.88;99283.78;6281787;22;991;-91
2022/01/31 06:05:28;;;;;;;;;;;;;;;1.30;89.04;99274.06;6281665;22;1269;-91
2022/01/31 06:07:54;;;;;;;;;;;;;;;1.34;88.94;99277.91;6309791;22;1246;-91
2022/01/31 06:10:22;;;;;;;;;;;;;;;1.34;89.27;99261.72;6283054;22;1349;-91
2022/01/31 06:12:47;;;;;;;;;;;;;;;1.36;89.25;99255.00;6281661;22;1880;-90
2022/01/31 06:15:12;;;;;;;;;;;;;;;1.34;89.38;99251.75;6282157;22;944;-90
2022/01/31 06:17:37;;;;;;;;;;;;;;;1.41;89.56;99248.88;6281602;22;1319;-91
2022/01/31 06:20:03;;;;;;;;;;;;;;;1.39;89.16;99243.72;6281999;22;996;-91
2022/01/31 06:22:28;;;;;;;;;;;;;;;1.45;89.45;99244.59;6281800;22;1286;-91
2022/01/31 06:24:53;;;;;;;;;;;;;;;1.47;89.45;99245.16;6281648;22;998;-91
2022/01/31 06:27:18;;;;;;;;;;;;;;;1.48;89.75;99244.09;6281857;22;1274;-91
2022/01/31 06:29:46;;;;;;;;;;;;;;;1.49;89.43;99240.34;6281703;22;1038;-91
2022/01/31 06:32:12;;;;;;;;;;;;;;;1.54;89.70;99234.97;6281433;22;1935;-91
2022/01/31 06:34:37;;;;;;;;;;;;;;;1.50;89.68;99245.47;6281506;22;1262;-91
2022/01/31 06:37:04;;;;;;;;;;;;;;;1.57;89.82;99231.78;6282079;22;1230;-92
2022/01/31 06:39:29;;;;;;;;;;;;;;;1.57;89.78;99236.38;6281635;22;1336;-91
2022/01/31 06:41:55;;;;;;;;;;;;;;;1.58;89.58;99225.34;6281787;22;1254;-91
2022/01/31 06:44:20;;;;;;;;;;;;;;;1.61;89.92;99230.25;6309149;22;967;-91
2022/01/31 06:46:45;;;;;;;;;;;;;;;1.59;90.35;99226.16;6281643;22;1262;-91
2022/01/31 06:49:10;;;;;;;;;;;;;;;1.62;90.01;99218.34;6281433;22;1305;-91
2022/01/31 06:51:35;;;;;;;;;;;;;;;1.65;90.14;99214.34;6281540;22;1935;-91
2022/01/31 06:54:01;;;;;;;;;;;;;;;1.57;90.82;99214.81;6281979;22;1271;-91
2022/01/31 06:56:30;;;;;;;;;;;;;;;1.66;90.79;99215.97;6283476;22;1288;-92
2022/01/31 06:58:56;;;;;;;;;;;;;;;1.71;90.57;99205.22;6282528;22;1281;-92
2022/01/31 07:01:24;;;;;;;;;;;;;;;1.69;91.07;99202.00;6281672;22;1326;-91
2022/01/31 07:03:49;;;;;;;;;;;;;;;1.73;91.35;99201.22;6281510;22;1187;-91
2022/01/31 07:06:15;;;;;;;;;;;;;;;1.80;90.87;99190.22;6309185;22;778;-91
2022/01/31 07:08:40;;;;;;;;;;;;;;;1.84;90.30;99189.47;6281626;22;1188;-91
2022/01/31 07:11:05;;;;;;;;;;;;;;;1.84;90.48;99186.78;6281867;22;1106;-91
2022/01/31 07:15:55;;;;;;;;;;;;;;;1.87;90.82;99182.75;6309389;22;1023;-88
2022/01/31 07:18:20;;;;;;;;;;;;;;;1.89;91.31;99175.19;6281792;22;1207;-89
2022/01/31 07:20:50;;;;;;;;;;;;;;;2.00;91.90;99171.53;6282768;22;933;-88
2022/01/31 07:23:23;;;;;;;;;;;;;;;2.02;92.29;99165.88;6282693;22;1178;-88
2022/01/31 07:25:48;;;;;;;;;;;;;;;2.19;91.94;99172.78;6282480;22;1300;-87
2022/01/31 07:28:16;;;;;;;;;;;;;;;2.21;91.85;99161.72;6282238;22;1305;-88
2022/01/31 07:30:44;;;;;;;;;;;;;;;2.23;91.95;99164.94;6281694;22;1384;-89
2022/01/31 07:33:10;;;;;;;;;;;;;;;2.16;92.28;99140.88;6281551;22;1892;-89
2022/01/31 07:35:35;;;;;;;;;;;;;;;2.33;92.00;99158.81;6281137;22;1174;-90
2022/01/31 07:38:00;;;;;;;;;;;;;;;2.38;91.96;99167.78;6282623;22;1350;-89
2022/01/31 07:40:25;;;;;;;;;;;;;;;2.42;91.97;99173.47;6307476;22;1174;-89
2022/01/31 07:42:51;;;;;;;;;;;;;;;2.47;91.27;99165.38;6296384;22;1273;-88
2022/01/31 07:45:19;;;;;;;;;;;;;;;2.48;90.99;99154.31;6308068;22;1163;-89
2022/01/31 07:47:44;;;;;;;;;;;;;;;2.45;91.79;99157.56;6303411;22;1272;-89
2022/01/31 07:50:10;;;;;;;;;;;;;;;2.51;90.91;99155.69;6284120;22;1341;-88
2022/01/31 07:52:35;;;;;;;;;;;;;;;2.44;92.03;99139.72;6283258;22;1893;-88
2022/01/31 07:55:00;;;;;;;;;;;;;;;2.44;92.14;99138.91;6310190;22;952;-88
2022/01/31 07:57:25;;;;;;;;;;;;;;;2.46;92.57;99140.28;6286728;22;1264;-90
2022/01/31 07:59:53;;;;;;;;;;;;;;;2.48;92.74;99143.53;6308052;22;1453;-90
2022/01/31 08:02:19;;;;;;;;;;;;;;;2.54;91.78;99142.50;6306075;22;1396;-88
2022/01/31 08:04:44;;;;;;;;;;;;;;;2.52;91.43;99141.94;6304923;22;1238;-88
2022/01/31 08:07:09;;;;;;;;;;;;;;;2.57;91.29;99125.75;6308535;22;1199;-87
2022/01/31 08:09:34;;;;;;;;;;;;;;;2.54;92.25;99134.41;6281893;22;1314;-89
2022/01/31 08:12:00;;;;;;;;;;;;;;;2.56;91.69;99126.00;6311396;22;1929;-89
2022/01/31 08:14:31;;;;;;;;;;;;;;;2.55;91.57;99133.28;6282288;22;1198;-88
2022/01/31 08:16:56;;;;;;;;;;;;;;;2.53;92.31;99132.75;6309371;22;1219;-89
2022/01/31 08:19:22;;;;;;;;;;;;;;;2.58;92.33;99130.09;6281896;22;1150;-88
2022/01/31 08:21:47;;;;;;;;;;;;;;;2.66;91.74;99131.47;6282702;22;1229;-89
2022/01/31 08:24:12;;;;;;;;;;;;;;;2.68;91.61;99126.63;6282854;22;1321;-89
2022/01/31 08:26:39;;;;;;;;;;;;;;;2.70;91.46;99127.19;6283471;22;1309;-89
2022/01/31 08:29:16;;;;;;;;;;;;;;;2.75;91.42;99119.09;6283100;22;1303;-90
2022/01/31 08:31:41;;;;;;;;;;;;;;;2.79;90.84;99114.81;6282349;22;1876;-89
2022/01/31 08:34:22;;;;;;;;;;;;;;;2.80;90.87;99129.13;6282577;22;1210;-89
2022/01/31 08:36:47;;;;;;;;;;;;;;;2.80;91.12;99127.25;6282503;22;1338;-89
2022/01/31 08:39:15;;;;;;;;;;;;;;;2.76;91.32;99125.31;6282437;22;1384;-89
2022/01/31 08:41:51;;;;;;;;;;;;;;;2.79;90.83;99119.38;6282668;22;1332;-89
2022/01/31 08:44:17;;;;;;;;;;;;;;;2.81;90.58;99118.03;6282271;22;1329;-88
2022/01/31 08:46:43;;;;;;;;;;;;;;;2.79;91.37;99127.50;6281969;22;1329;-89
2022/01/31 08:49:09;;;;;;;;;;;;;;;2.76;91.04;99128.00;6282457;22;1278;-89
2022/01/31 08:51:35;;;;;;;;;;;;;;;2.77;91.56;99124.22;6281729;22;1892;-89
2022/01/31 08:54:00;;;;;;;;;;;;;;;2.81;90.93;99111.81;6309254;22;810;-89
2022/01/31 08:56:25;;;;;;;;;;;;;;;2.80;91.12;99118.31;6282541;22;1324;-88
2022/01/31 08:58:51;;;;;;;;;;;;;;;2.78;91.52;99123.16;6282009;22;1282;-88
2022/01/31 09:01:19;;;;;;;;;;;;;;;2.79;91.49;99114.81;6282010;22;1258;-88
2022/01/31 09:06:16;;;;;;;;;;;;;;;2.78;92.22;99120.47;6319649;22;632;-88
2022/01/31 09:08:41;;;;;;;;;;;;;;;2.80;91.37;99123.72;6283657;22;1326;-89
2022/01/31 09:11:07;;;;;;;;;;;;;;;2.83;90.81;99124.00;6282551;22;1270;-88
2022/01/31 09:13:32;;;;;;;;;;;;;;;2.79;91.38;99122.09;6282430;22;1935;-87
2022/01/31 09:15:57;;;;;;;;;;;;;;;2.79;90.91;99117.50;6283079;22;1289;-88
2022/01/31 09:18:23;;;;;;;;;;;;;;;2.80;91.31;99126.41;6283137;22;1184;-89
2022/01/31 09:20:48;;;;;;;;;;;;;;;2.79;91.41;99124.78;6282952;22;1218;-88
2022/01/31 09:23:13;;;;;;;;;;;;;;;2.79;91.74;99124.78;6282707;22;995;-88
2022/01/31 09:25:44;;;;;;;;;;;;;;;2.84;90.93;99120.22;6282615;22;1337;-88
2022/01/31 09:28:10;;;;;;;;;;;;;;;2.86;91.87;99122.66;6282662;22;1401;-88
2022/01/31 09:30:35;;;;;;;;;;;;;;;2.85;92.12;99118.31;6282244;22;1272;-88
2022/01/31 09:33:00;;;;;;;;;;;;;;;2.85;92.43;99115.63;6282105;22;1893;-88
2022/01/31 09:35:26;;;;;;;;;;;;;;;2.84;92.38;99114.00;6309605;22;913;-88
2022/01/31 09:37:51;;;;;;;;;;;;;;;2.89;91.81;99104.00;6282035;22;1196;-88
2022/01/31 09:40:20;;;;;;;;;;;;;;;2.95;92.19;99096.75;6281749;22;1136;-88
2022/01/31 09:43:10;;;;;;;;;;;;;;;3.01;91.76;99104.59;6282053;22;1182;-88
2022/01/31 09:50:56;;;;;;;;;;;;;;;3.26;90.67;99098.47;6309168;22;568;-87
2022/01/31 09:53:22;;;;;;;;;;;;;;;3.37;91.17;99100.13;6281300;22;1933;-88
2022/01/31 09:55:48;;;;;;;;;;;;;;;3.43;91.01;99099.03;6282012;22;1187;-88
2022/01/31 09:58:14;;;;;;;;;;;;;;;3.44;91.47;99107.97;6282049;22;1322;-88
2022/01/31 10:00:39;;;;;;;;;;;;;;;3.46;90.67;99113.09;6281983;22;1428;-88
2022/01/31 10:03:08;;;;;;;;;;;;;;;3.60;90.62;99103.38;6281850;22;1246;-87
2022/01/31 10:05:34;;;;;;;;;;;;;;;3.61;90.67;99115.84;6282022;22;1372;-88
2022/01/31 10:08:08;;;;;;;;;;;;;;;3.53;89.88;99124.47;6282249;22;1306;-87
2022/01/31 10:10:39;;;;;;;;;;;;;;;3.48;90.47;99117.19;6281945;22;1354;-88
2022/01/31 10:18:59;;;;;;;;;;;;;;;3.45;89.94;99114.19;6309038;22;1211;-88
2022/01/31 10:21:26;;;;;;;;;;;;;;;3.50;90.94;99115.00;6281534;22;1296;-88
2022/01/31 10:23:51;;;;;;;;;;;;;;;3.55;90.98;99125.03;6281422;22;1202;-88
2022/01/31 10:26:30;;;;;;;;;;;;;;;3.58;90.75;99127.19;6281413;22;1336;-88
2022/01/31 16:11:26;;;;;;;;;;;;;;;4.26;89.39;99515.06;6340789;22;700;-92
2022/01/31 16:13:51;;;;;;;;;;;;;;;4.23;89.69;99513.69;6313627;22;1916;-92
2022/01/31 16:16:17;;;;;;;;;;;;;;;4.19;89.81;99518.00;6314354;22;880;-92
2022/01/31 16:18:42;;;;;;;;;;;;;;;4.17;90.06;99515.56;6314790;22;1254;-92
2022/01/31 16:21:09;;;;;;;;;;;;;;;4.16;90.38;99519.38;6344279;22;772;-91
2022/01/31 16:23:38;;;;;;;;;;;;;;;4.18;90.09;99521.78;6318687;22;1296;-90
2022/01/31 16:26:03;;;;;;;;;;;;;;;4.16;90.42;99524.78;6314875;22;1327;-91
2022/01/31 16:28:29;;;;;;;;;;;;;;;4.16;90.59;99532.91;6313782;22;1218;-91
2022/01/31 16:30:55;;;;;;;;;;;;;;;4.18;91.13;99521.78;6313596;22;1143;-90
2022/01/31 16:33:20;;;;;;;;;;;;;;;4.17;91.08;99510.13;6341326;22;1923;-91
2022/01/31 16:35:46;;;;;;;;;;;;;;;4.16;91.90;99522.06;6313088;22;1289;-89
2022/01/31 16:38:12;;;;;;;;;;;;;;;4.17;91.91;99537.22;6340218;22;1179;-89
2022/01/31 16:50:28;;;;;;;;;;;;;;;;;;;;;
2022/01/31 16:53:02;;;;;;;;;;;;;;;4.23;91.48;99546.22;6340558;22;1943;-92
2022/01/31 16:56:03;;;;;;;;;;;;;;;;;;;;;
2022/01/31 16:59:03;;;;;;;;;;;;;;;;;;;;;
2022/01/31 17:01:33;;;;;;;;;;;;;;;4.35;91.20;99573.06;6281037;22;1265;-89
2022/01/31 17:04:01;;;;;;;;;;;;;;;4.42;90.40;99579.88;6342565;22;915;-91
2022/01/31 17:06:26;;;;;;;;;;;;;;;4.47;90.38;99585.34;6312574;22;1243;-90
2022/01/31 17:08:57;;;;;;;;;;;;;;;4.46;90.81;99578.28;6312453;22;1186;-88
2022/01/31 17:11:23;;;;;;;;;;;;;;;4.46;90.67;99572.06;6311902;22;1202;-89
2022/01/31 17:14:06;;;;;;;;;;;;;;;4.48;90.63;99580.75;6312850;22;1940;-89
2022/01/31 17:16:34;;;;;;;;;;;;;;;4.51;90.85;99591.03;6313242;22;1198;-90
2022/01/31 17:19:04;;;;;;;;;;;;;;;4.51;90.77;99612.72;6312831;22;1290;-91
2022/01/31 17:21:30;;;;;;;;;;;;;;;4.49;90.97;99625.75;6312193;22;1163;-91
2022/01/31 17:23:59;;;;;;;;;;;;;;;4.45;91.81;99627.31;6312871;22;1058;-89
2022/01/31 17:26:24;;;;;;;;;;;;;;;4.34;91.60;99650.03;6312627;22;1056;-91
2022/01/31 17:28:52;;;;;;;;;;;;;;;4.05;89.15;99652.25;6312277;22;1187;-91
2022/01/31 17:31:17;;;;;;;;;;;;;;;3.98;89.59;99649.75;6312424;22;1096;-91
2022/01/31 17:33:42;;;;;;;;;;;;;;;3.91;89.92;99656.47;6312545;22;1951;-90
2022/01/31 17:36:08;;;;;;;;;;;;;;;3.83;89.32;99665.84;6312141;22;1161;-91
2022/01/31 17:38:33;;;;;;;;;;;;;;;3.76;89.14;99670.66;6340150;22;1203;-91
2022/01/31 17:40:58;;;;;;;;;;;;;;;3.71;88.99;99686.84;6312165;22;1080;-91
2022/01/31 17:43:25;;;;;;;;;;;;;;;3.70;88.97;99691.44;6312279;22;969;-91
2022/01/31 17:45:50;;;;;;;;;;;;;;;3.68;89.24;99692.75;6339749;22;777;-91
2022/01/31 17:48:16;;;;;;;;;;;;;;;3.66;89.92;99700.31;6312406;22;1261;-91
2022/01/31 17:50:41;;;;;;;;;;;;;;;3.62;89.11;99710.84;6339912;22;817;-90
2022/01/31 17:53:06;;;;;;;;;;;;;;;3.61;89.59;99711.91;6339219;22;1922;-91
2022/01/31 17:55:32;;;;;;;;;;;;;;;3.65;89.39;99728.47;6312259;22;1087;-91
2022/01/31 17:57:57;;;;;;;;;;;;;;;3.68;89.58;99734.16;6339909;22;1285;-91
2022/01/31 18:00:23;;;;;;;;;;;;;;;3.69;89.20;99741.22;6312646;22;1407;-92
2022/01/31 18:02:48;;;;;;;;;;;;;;;3.72;88.95;99748.84;6340021;22;797;-92
2022/01/31 18:05:14;;;;;;;;;;;;;;;3.74;89.19;99770.25;6312530;22;1201;-92
2022/01/31 18:07:39;;;;;;;;;;;;;;;3.71;88.88;99766.16;6339756;22;1202;-92
2022/01/31 18:10:05;;;;;;;;;;;;;;;3.73;89.44;99784.84;6312151;22;1170;-91
2022/01/31 18:12:30;;;;;;;;;;;;;;;3.79;89.92;99789.25;6339082;22;1937;-90
2022/01/31 18:14:55;;;;;;;;;;;;;;;3.79;88.96;99800.88;6339342;22;844;-91
2022/01/31 18:17:21;;;;;;;;;;;;;;;3.83;89.04;99817.41;6339518;22;1194;-92
2022/01/31 18:19:46;;;;;;;;;;;;;;;3.87;88.51;99839.41;6339163;22;1007;-90
2022/01/31 18:22:11;;;;;;;;;;;;;;;3.81;88.68;99843.94;6338545;22;983;-89
2022/01/31 18:24:38;;;;;;;;;;;;;;;3.78;88.72;99856.09;6311126;22;1143;-91
2022/01/31 18:27:04;;;;;;;;;;;;;;;3.80;88.20;99866.66;6338728;22;1190;-92
2022/01/31 18:29:29;;;;;;;;;;;;;;;3.61;86.69;99881.56;6311180;22;1307;-91
2022/01/31 18:31:55;;;;;;;;;;;;;;;3.54;86.44;99894.47;6310739;22;1888;-91
2022/01/31 18:34:28;;;;;;;;;;;;;;;3.52;86.28;99907.41;6338741;22;841;-91
2022/01/31 18:36:54;;;;;;;;;;;;;;;3.49;86.03;99913.34;6309721;22;1230;-90
2022/01/31 18:39:19;;;;;;;;;;;;;;;3.42;85.76;99922.44;6311065;22;1324;-91
2022/01/31 18:41:44;;;;;;;;;;;;;;;3.38;85.49;99915.88;6311139;22;1256;-92
2022/01/31 18:44:11;;;;;;;;;;;;;;;3.34;85.32;99927.44;6310045;22;1251;-91
2022/01/31 18:46:37;;;;;;;;;;;;;;;3.31;86.58;99930.66;6285806;22;1420;-90
2022/01/31 18:49:05;;;;;;;;;;;;;;;3.33;86.07;99950.97;6338597;22;1179;-91
2022/01/31 18:51:32;;;;;;;;;;;;;;;3.30;85.44;99953.34;6310614;22;1396;-90
2022/01/31 18:53:58;;;;;;;;;;;;;;;3.27;85.44;99968.19;6309944;22;1884;-91
2022/01/31 18:56:23;;;;;;;;;;;;;;;3.18;86.30;99966.94;6309850;22;1238;-91
2022/01/31 18:58:48;;;;;;;;;;;;;;;3.19;85.86;99963.19;6310197;22;1217;-90
2022/01/31 19:01:14;;;;;;;;;;;;;;;3.21;86.18;99966.47;6310042;22;1146;-91
2022/01/31 19:03:40;;;;;;;;;;;;;;;3.23;86.36;99968.94;6310711;22;1361;-90
2022/01/31 19:06:05;;;;;;;;;;;;;;;3.23;86.77;99971.63;6310430;22;1240;-91
2022/01/31 19:08:30;;;;;;;;;;;;;;;3.23;86.59;99961.59;6310057;22;1198;-90
2022/01/31 19:14:09;;;;;;;;;;;;;;;3.24;86.72;99974.06;6334669;22;1912;-91
2022/01/31 19:16:07;;;;;;;;;;;;;;;3.17;87.07;99989.63;6316515;22;1059;-90
2022/01/31 19:18:32;;;;;;;;;;;;;;;3.15;86.86;99989.06;6310521;22;1215;-91
2022/01/31 19:20:58;;;;;;;;;;;;;;;3.17;86.95;100000.47;6310453;22;1165;-92